createdAt,value
2023-02-26T00:00:29.203Z,0.00
2023-02-26T00:01:29.189Z,0.00
2023-02-26T00:02:29.246Z,0.00
2023-02-26T00:03:29.247Z,0.00
2023-02-26T00:04:29.183Z,0.00
2023-02-26T00:05:29.170Z,0.00
2023-02-26T00:06:29.481Z,0.00
2023-02-26T00:07:29.162Z,0.00
2023-02-26T00:08:29.157Z,0.00
2023-02-26T00:09:29.145Z,0.00
2023-02-26T00:10:29.148Z,0.00
2023-02-26T00:11:29.136Z,0.00
2023-02-26T00:12:29.155Z,0.00
2023-02-26T00:13:29.161Z,0.00
2023-02-26T00:14:29.524Z,0.00
2023-02-26T00:15:29.115Z,0.00
2023-02-26T00:16:29.186Z,0.00
2023-02-26T00:17:29.105Z,0.00
2023-02-26T00:18:29.097Z,0.00
2023-02-26T00:19:29.086Z,0.00
2023-02-26T00:20:29.088Z,0.00
2023-02-26T00:21:29.078Z,0.00
2023-02-26T00:22:29.087Z,0.00
2023-02-26T00:23:29.069Z,0.00
2023-02-26T00:24:29.065Z,0.00
2023-02-26T00:25:29.052Z,0.00
2023-02-26T00:26:29.424Z,0.00
2023-02-26T00:27:29.044Z,0.00
2023-02-26T00:28:29.063Z,0.00
2023-02-26T00:29:29.033Z,0.00
2023-02-26T00:30:29.036Z,0.00
2023-02-26T00:31:29.093Z,0.00
2023-02-26T00:32:31.267Z,0.00
2023-02-26T00:33:29.016Z,0.00
2023-02-26T00:34:29.018Z,0.00
2023-02-26T00:35:29.000Z,0.00
2023-02-26T00:36:29.331Z,0.00
2023-02-26T00:37:28.990Z,0.00
2023-02-26T00:38:28.992Z,0.00
2023-02-26T00:39:28.979Z,0.00
2023-02-26T00:40:28.982Z,0.00
2023-02-26T00:41:29.006Z,0.00
2023-02-26T00:42:28.967Z,0.00
2023-02-26T00:43:28.958Z,0.00
2023-02-26T00:44:28.978Z,0.00
2023-02-26T00:45:28.947Z,0.00
2023-02-26T00:46:29.045Z,0.00
2023-02-26T00:47:28.939Z,0.00
2023-02-26T00:48:28.931Z,0.00
2023-02-26T00:49:28.923Z,0.00
2023-02-26T00:50:28.920Z,0.00
2023-02-26T00:51:28.909Z,0.00
2023-02-26T00:52:28.906Z,0.00
2023-02-26T00:53:28.897Z,0.00
2023-02-26T00:54:28.914Z,0.00
2023-02-26T00:55:29.576Z,0.00
2023-02-26T00:56:28.888Z,0.00
2023-02-26T00:57:28.878Z,0.00
2023-02-26T00:58:28.890Z,0.00
2023-02-26T00:59:28.869Z,0.00
2023-02-26T01:00:28.888Z,0.00
2023-02-26T01:01:28.876Z,0.00
2023-02-26T01:02:28.847Z,0.00
2023-02-26T01:03:28.903Z,0.00
2023-02-26T01:04:28.842Z,0.00
2023-02-26T01:05:28.841Z,0.00
2023-02-26T01:06:28.826Z,0.00
2023-02-26T01:07:28.819Z,0.00
2023-02-26T01:08:28.816Z,0.00
2023-02-26T01:09:28.805Z,0.00
2023-02-26T01:10:28.802Z,0.00
2023-02-26T01:11:28.791Z,0.00
2023-02-26T01:12:28.793Z,0.00
2023-02-26T01:13:28.783Z,0.00
2023-02-26T01:14:28.785Z,0.00
2023-02-26T01:15:28.777Z,0.00
2023-02-26T01:16:29.224Z,0.00
2023-02-26T01:17:28.762Z,0.00
2023-02-26T01:18:28.780Z,0.00
2023-02-26T01:19:28.750Z,0.00
2023-02-26T01:20:28.753Z,0.00
2023-02-26T01:21:28.735Z,0.00
2023-02-26T01:22:28.735Z,0.00
2023-02-26T01:23:28.726Z,0.00
2023-02-26T01:24:28.723Z,0.00
2023-02-26T01:25:28.710Z,0.00
2023-02-26T01:26:28.719Z,0.00
2023-02-26T01:27:28.713Z,0.00
2023-02-26T01:28:28.703Z,0.00
2023-02-26T01:29:28.691Z,0.00
2023-02-26T01:30:28.695Z,0.00
2023-02-26T01:31:28.779Z,0.00
2023-02-26T01:32:28.890Z,0.00
2023-02-26T01:33:28.676Z,0.00
2023-02-26T01:34:28.660Z,0.00
2023-02-26T01:35:28.669Z,0.00
2023-02-26T01:36:28.656Z,0.00
2023-02-26T01:37:28.655Z,0.00
2023-02-26T01:38:28.662Z,0.00
2023-02-26T01:39:28.640Z,0.00
2023-02-26T01:40:28.638Z,0.00
2023-02-26T01:41:28.631Z,0.00
2023-02-26T01:42:28.620Z,0.00
2023-02-26T01:43:28.628Z,0.00
2023-02-26T01:44:28.614Z,0.00
2023-02-26T01:45:28.611Z,0.00
2023-02-26T01:46:29.188Z,0.00
2023-02-26T01:47:28.598Z,0.00
2023-02-26T01:48:28.614Z,0.00
2023-02-26T01:49:28.583Z,0.00
2023-02-26T01:50:28.578Z,0.00
2023-02-26T01:51:28.579Z,0.00
2023-02-26T01:52:28.566Z,0.00
2023-02-26T01:53:28.563Z,0.00
2023-02-26T01:54:28.556Z,0.00
2023-02-26T01:55:28.553Z,0.00
2023-02-26T01:56:28.546Z,0.00
2023-02-26T01:57:28.542Z,0.00
2023-02-26T01:58:28.532Z,0.00
2023-02-26T01:59:28.532Z,0.00
2023-02-26T02:00:28.522Z,0.00
2023-02-26T02:01:28.526Z,0.00
2023-02-26T02:02:28.687Z,0.00
2023-02-26T02:03:28.652Z,0.00
2023-02-26T02:04:28.583Z,0.00
2023-02-26T02:05:28.501Z,0.00
2023-02-26T02:06:28.601Z,0.00
2023-02-26T02:07:28.489Z,0.00
2023-02-26T02:08:28.484Z,0.00
2023-02-26T02:09:28.477Z,0.00
2023-02-26T02:10:28.470Z,0.00
2023-02-26T02:11:28.461Z,0.00
2023-02-26T02:12:28.456Z,0.00
2023-02-26T02:13:28.458Z,0.00
2023-02-26T02:14:28.448Z,0.00
2023-02-26T02:15:28.442Z,0.00
2023-02-26T02:16:28.840Z,0.00
2023-02-26T02:17:28.429Z,0.00
2023-02-26T02:18:28.427Z,0.00
2023-02-26T02:19:28.421Z,0.00
2023-02-26T02:20:28.477Z,0.00
2023-02-26T02:21:28.402Z,0.00
2023-02-26T02:22:28.396Z,0.00
2023-02-26T02:23:28.397Z,0.00
2023-02-26T02:24:28.385Z,0.00
2023-02-26T02:25:28.379Z,0.00
2023-02-26T02:26:28.652Z,0.00
2023-02-26T02:27:28.368Z,0.00
2023-02-26T02:28:28.363Z,0.00
2023-02-26T02:29:28.361Z,0.00
2023-02-26T02:30:28.352Z,0.00
2023-02-26T02:31:28.496Z,0.00
2023-02-26T02:32:28.514Z,0.00
2023-02-26T02:33:28.335Z,0.00
2023-02-26T02:34:28.324Z,0.00
2023-02-26T02:35:28.322Z,0.00
2023-02-26T02:36:28.332Z,0.00
2023-02-26T02:37:28.312Z,0.00
2023-02-26T02:38:28.319Z,0.00
2023-02-26T02:39:28.302Z,0.00
2023-02-26T02:40:28.293Z,0.00
2023-02-26T02:41:28.292Z,0.00
2023-02-26T02:42:28.281Z,0.00
2023-02-26T02:43:28.275Z,0.00
2023-02-26T02:44:28.272Z,0.00
2023-02-26T02:45:28.292Z,0.00
2023-02-26T02:46:28.664Z,0.00
2023-02-26T02:47:28.262Z,0.00
2023-02-26T02:48:28.254Z,0.00
2023-02-26T02:49:28.243Z,0.00
2023-02-26T02:50:28.238Z,0.00
2023-02-26T02:51:28.239Z,0.00
2023-02-26T02:52:28.251Z,0.00
2023-02-26T02:53:28.235Z,0.00
2023-02-26T02:54:28.218Z,0.00
2023-02-26T02:55:28.215Z,0.00
2023-02-26T02:56:28.459Z,0.00
2023-02-26T02:57:28.204Z,0.00
2023-02-26T02:58:28.191Z,0.00
2023-02-26T02:59:28.190Z,0.00
2023-02-26T03:00:28.184Z,0.00
2023-02-26T03:01:28.180Z,0.00
2023-02-26T03:02:28.219Z,0.00
2023-02-26T03:03:28.171Z,0.00
2023-02-26T03:04:28.157Z,0.00
2023-02-26T03:05:28.167Z,0.00
2023-02-26T03:06:28.152Z,0.00
2023-02-26T03:07:28.150Z,0.00
2023-02-26T03:08:28.164Z,0.00
2023-02-26T03:09:28.137Z,0.00
2023-02-26T03:10:28.145Z,0.00
2023-02-26T03:11:28.141Z,0.00
2023-02-26T03:12:28.118Z,0.00
2023-02-26T03:13:28.115Z,0.00
2023-02-26T03:14:28.101Z,0.00
2023-02-26T03:15:28.103Z,0.00
2023-02-26T03:16:28.346Z,0.00
2023-02-26T03:17:28.098Z,0.00
2023-02-26T03:18:28.085Z,0.00
2023-02-26T03:19:28.086Z,0.00
2023-02-26T03:20:28.070Z,0.00
2023-02-26T03:21:28.076Z,0.00
2023-02-26T03:22:28.061Z,0.00
2023-02-26T03:23:28.057Z,0.00
2023-02-26T03:24:28.081Z,0.00
2023-02-26T03:25:28.050Z,0.00
2023-02-26T03:26:28.490Z,0.00
2023-02-26T03:27:28.041Z,0.00
2023-02-26T03:28:28.028Z,0.00
2023-02-26T03:29:28.031Z,0.00
2023-02-26T03:30:28.023Z,0.00
2023-02-26T03:31:28.113Z,0.00
2023-02-26T03:32:28.237Z,0.00
2023-02-26T03:33:28.012Z,0.00
2023-02-26T03:34:27.995Z,0.00
2023-02-26T03:35:27.998Z,0.00
2023-02-26T03:36:28.231Z,0.00
2023-02-26T03:37:28.003Z,0.00
2023-02-26T03:38:27.982Z,0.00
2023-02-26T03:39:27.983Z,0.00
2023-02-26T03:40:27.995Z,0.00
2023-02-26T03:41:27.961Z,0.00
2023-02-26T03:42:27.956Z,0.00
2023-02-26T03:43:27.953Z,0.00
2023-02-26T03:44:27.943Z,0.00
2023-02-26T03:45:27.942Z,0.00
2023-02-26T03:46:28.125Z,0.00
2023-02-26T03:47:27.952Z,0.00
2023-02-26T03:48:27.924Z,0.00
2023-02-26T03:49:27.917Z,0.00
2023-02-26T03:50:27.908Z,0.00
2023-02-26T03:51:27.904Z,0.00
2023-02-26T03:52:27.900Z,0.00
2023-02-26T03:53:27.899Z,0.00
2023-02-26T03:54:27.886Z,0.00
2023-02-26T03:55:27.884Z,0.00
2023-02-26T03:56:27.893Z,0.00
2023-02-26T03:57:27.884Z,0.00
2023-02-26T03:58:27.865Z,0.00
2023-02-26T03:59:27.861Z,0.00
2023-02-26T04:00:27.861Z,0.00
2023-02-26T04:01:27.846Z,0.00
2023-02-26T04:02:27.906Z,0.00
2023-02-26T04:03:27.833Z,0.00
2023-02-26T04:04:27.906Z,0.00
2023-02-26T04:05:27.829Z,0.00
2023-02-26T04:06:27.814Z,0.00
2023-02-26T04:07:27.818Z,0.00
2023-02-26T04:08:27.819Z,0.00
2023-02-26T04:09:27.803Z,0.00
2023-02-26T04:10:27.796Z,0.00
2023-02-26T04:11:27.800Z,0.00
2023-02-26T04:12:27.811Z,0.00
2023-02-26T04:13:27.779Z,0.00
2023-02-26T04:14:27.781Z,0.00
2023-02-26T04:15:27.771Z,0.00
2023-02-26T04:16:28.159Z,0.00
2023-02-26T04:17:29.604Z,0.00
2023-02-26T04:18:27.750Z,0.00
2023-02-26T04:19:27.746Z,0.00
2023-02-26T04:20:27.746Z,0.00
2023-02-26T04:21:27.734Z,0.00
2023-02-26T04:22:27.732Z,0.00
2023-02-26T04:23:27.725Z,0.00
2023-02-26T04:24:27.726Z,0.00
2023-02-26T04:25:27.716Z,0.00
2023-02-26T04:26:27.727Z,0.00
2023-02-26T04:27:27.712Z,0.00
2023-02-26T04:28:27.719Z,0.00
2023-02-26T04:29:27.694Z,0.00
2023-02-26T04:30:27.782Z,0.00
2023-02-26T04:31:27.809Z,0.00
2023-02-26T04:32:27.717Z,0.00
2023-02-26T04:33:27.674Z,0.00
2023-02-26T04:34:27.657Z,0.00
2023-02-26T04:35:27.654Z,0.00
2023-02-26T04:36:27.920Z,0.00
2023-02-26T04:37:27.642Z,0.00
2023-02-26T04:38:27.637Z,0.00
2023-02-26T04:39:27.630Z,0.00
2023-02-26T04:40:27.686Z,0.00
2023-02-26T04:41:27.616Z,0.00
2023-02-26T04:42:27.610Z,0.00
2023-02-26T04:43:27.611Z,0.00
2023-02-26T04:44:27.626Z,0.00
2023-02-26T04:45:27.609Z,0.00
2023-02-26T04:46:27.998Z,0.00
2023-02-26T04:47:27.614Z,0.00
2023-02-26T04:48:27.579Z,0.00
2023-02-26T04:49:27.575Z,0.00
2023-02-26T04:50:27.563Z,0.00
2023-02-26T04:51:27.593Z,0.00
2023-02-26T04:52:27.706Z,0.00
2023-02-26T04:53:27.557Z,0.00
2023-02-26T04:54:27.541Z,0.00
2023-02-26T04:55:27.538Z,0.00
2023-02-26T04:56:27.860Z,0.00
2023-02-26T04:57:27.527Z,0.00
2023-02-26T04:58:27.539Z,0.00
2023-02-26T04:59:27.517Z,0.00
2023-02-26T05:00:27.526Z,0.00
2023-02-26T05:01:27.524Z,0.00
2023-02-26T05:02:27.496Z,0.00
2023-02-26T05:03:27.493Z,0.00
2023-02-26T05:04:27.551Z,0.00
2023-02-26T05:05:27.483Z,0.00
2023-02-26T05:06:27.711Z,0.00
2023-02-26T05:07:27.472Z,0.00
2023-02-26T05:08:27.485Z,0.00
2023-02-26T05:09:27.463Z,0.00
2023-02-26T05:10:27.462Z,0.00
2023-02-26T05:11:27.457Z,0.00
2023-02-26T05:12:27.445Z,0.00
2023-02-26T05:13:27.443Z,0.00
2023-02-26T05:14:27.432Z,0.00
2023-02-26T05:15:27.439Z,0.00
2023-02-26T05:16:27.827Z,0.00
2023-02-26T05:17:27.418Z,0.00
2023-02-26T05:18:27.405Z,0.00
2023-02-26T05:19:27.410Z,0.00
2023-02-26T05:20:27.397Z,0.00
2023-02-26T05:21:27.405Z,0.00
2023-02-26T05:22:27.388Z,0.00
2023-02-26T05:23:27.395Z,0.00
2023-02-26T05:24:27.376Z,0.00
2023-02-26T05:25:27.372Z,0.00
2023-02-26T05:26:27.700Z,0.00
2023-02-26T05:27:27.361Z,0.00
2023-02-26T05:28:27.360Z,0.00
2023-02-26T05:29:27.352Z,4.00
2023-02-26T05:30:27.419Z,0.00
2023-02-26T05:31:27.371Z,0.00
2023-02-26T05:32:27.485Z,0.00
2023-02-26T05:33:27.324Z,4.00
2023-02-26T05:34:27.325Z,0.00
2023-02-26T05:35:27.314Z,4.00
2023-02-26T05:36:27.494Z,4.00
2023-02-26T05:37:27.317Z,4.00
2023-02-26T05:38:27.298Z,4.00
2023-02-26T05:39:27.291Z,4.00
2023-02-26T05:40:27.286Z,4.00
2023-02-26T05:41:27.294Z,4.00
2023-02-26T05:42:27.273Z,8.00
2023-02-26T05:43:27.400Z,12.00
2023-02-26T05:44:27.262Z,12.00
2023-02-26T05:45:27.261Z,12.00
2023-02-26T05:46:27.688Z,16.00
2023-02-26T05:47:27.246Z,16.00
2023-02-26T05:48:27.258Z,20.00
2023-02-26T05:49:27.235Z,24.00
2023-02-26T05:50:27.229Z,28.00
2023-02-26T05:51:27.226Z,36.00
2023-02-26T05:52:27.228Z,40.00
2023-02-26T05:53:27.210Z,44.00
2023-02-26T05:54:27.206Z,52.00
2023-02-26T05:55:27.199Z,56.00
2023-02-26T05:56:27.427Z,64.00
2023-02-26T05:57:27.189Z,68.00
2023-02-26T05:58:27.196Z,80.00
2023-02-26T05:59:27.173Z,88.00
2023-02-26T06:00:27.173Z,100.00
2023-02-26T06:01:27.161Z,112.00
2023-02-26T06:02:27.164Z,124.00
2023-02-26T06:03:27.152Z,132.00
2023-02-26T06:04:27.172Z,148.00
2023-02-26T06:05:27.154Z,152.00
2023-02-26T06:06:27.450Z,164.00
2023-02-26T06:07:27.140Z,184.00
2023-02-26T06:08:27.141Z,200.00
2023-02-26T06:09:27.148Z,212.00
2023-02-26T06:10:27.120Z,232.00
2023-02-26T06:11:27.104Z,248.00
2023-02-26T06:12:27.108Z,272.00
2023-02-26T06:13:27.094Z,296.00
2023-02-26T06:14:27.090Z,308.00
2023-02-26T06:15:27.081Z,320.00
2023-02-26T06:16:27.674Z,360.00
2023-02-26T06:17:27.085Z,392.00
2023-02-26T06:18:27.092Z,392.00
2023-02-26T06:19:27.060Z,416.00
2023-02-26T06:20:27.080Z,436.00
2023-02-26T06:21:27.045Z,416.00
2023-02-26T06:22:27.047Z,416.00
2023-02-26T06:23:27.040Z,444.00
2023-02-26T06:24:27.060Z,484.00
2023-02-26T06:25:27.029Z,520.00
2023-02-26T06:26:27.388Z,552.00
2023-02-26T06:27:27.017Z,580.00
2023-02-26T06:28:27.018Z,656.00
2023-02-26T06:29:27.004Z,732.00
2023-02-26T06:30:27.053Z,788.00
2023-02-26T06:31:27.071Z,804.00
2023-02-26T06:32:29.016Z,776.00
2023-02-26T06:33:26.987Z,768.00
2023-02-26T06:34:26.986Z,816.00
2023-02-26T06:35:26.975Z,836.00
2023-02-26T06:36:27.304Z,872.00
2023-02-26T06:37:26.974Z,960.00
2023-02-26T06:38:26.965Z,1000.00
2023-02-26T06:39:26.961Z,1052.00
2023-02-26T06:40:26.947Z,1044.00
2023-02-26T06:41:26.940Z,1000.00
2023-02-26T06:42:26.941Z,936.00
2023-02-26T06:43:26.925Z,928.00
2023-02-26T06:44:26.931Z,948.00
2023-02-26T06:45:26.926Z,912.00
2023-02-26T06:46:27.345Z,996.00
2023-02-26T06:47:26.915Z,896.00
2023-02-26T06:48:26.909Z,916.00
2023-02-26T06:49:26.895Z,972.00
2023-02-26T06:50:26.897Z,908.00
2023-02-26T06:51:26.908Z,996.00
2023-02-26T06:52:26.914Z,1000.00
2023-02-26T06:53:26.877Z,1164.00
2023-02-26T06:54:26.868Z,1196.00
2023-02-26T06:55:26.856Z,1224.00
2023-02-26T06:56:27.217Z,1164.00
2023-02-26T06:57:26.855Z,1312.00
2023-02-26T06:58:26.852Z,1336.00
2023-02-26T06:59:26.850Z,1288.00
2023-02-26T07:00:26.841Z,1488.00
2023-02-26T07:01:26.908Z,1440.00
2023-02-26T07:02:26.995Z,1324.00
2023-02-26T07:03:26.825Z,1272.00
2023-02-26T07:04:26.829Z,1472.00
2023-02-26T07:05:26.803Z,1604.00
2023-02-26T07:06:28.160Z,1732.00
2023-02-26T07:07:26.795Z,1792.00
2023-02-26T07:08:26.821Z,1760.00
2023-02-26T07:09:26.781Z,1720.00
2023-02-26T07:10:26.801Z,1680.00
2023-02-26T07:11:26.799Z,1432.00
2023-02-26T07:12:26.778Z,1668.00
2023-02-26T07:13:26.767Z,1684.00
2023-02-26T07:14:26.769Z,1844.00
2023-02-26T07:15:26.755Z,1980.00
2023-02-26T07:16:27.225Z,2040.00
2023-02-26T07:17:26.741Z,2212.00
2023-02-26T07:18:26.735Z,2064.00
2023-02-26T07:19:26.729Z,2040.00
2023-02-26T07:20:26.731Z,1952.00
2023-02-26T07:21:26.722Z,2016.00
2023-02-26T07:22:26.714Z,2036.00
2023-02-26T07:23:26.705Z,2004.00
2023-02-26T07:24:26.735Z,2004.00
2023-02-26T07:25:26.699Z,2308.00
2023-02-26T07:26:27.029Z,2836.00
2023-02-26T07:27:26.685Z,2412.00
2023-02-26T07:28:26.685Z,2264.00
2023-02-26T07:29:26.670Z,2208.00
2023-02-26T07:30:26.695Z,2184.00
2023-02-26T07:31:26.808Z,2200.00
2023-02-26T07:32:26.693Z,2244.00
2023-02-26T07:33:26.743Z,2280.00
2023-02-26T07:34:26.647Z,2280.00
2023-02-26T07:35:26.663Z,2320.00
2023-02-26T07:36:27.062Z,2364.00
2023-02-26T07:37:26.631Z,2396.00
2023-02-26T07:38:26.629Z,2428.00
2023-02-26T07:39:26.616Z,2464.00
2023-02-26T07:40:26.647Z,2496.00
2023-02-26T07:41:26.608Z,2528.00
2023-02-26T07:42:26.614Z,2564.00
2023-02-26T07:43:26.599Z,2596.00
2023-02-26T07:44:26.595Z,2640.00
2023-02-26T07:45:26.585Z,2680.00
2023-02-26T07:46:27.046Z,2716.00
2023-02-26T07:47:26.582Z,2756.00
2023-02-26T07:48:26.580Z,2800.00
2023-02-26T07:49:26.568Z,2840.00
2023-02-26T07:50:26.663Z,2892.00
2023-02-26T07:51:26.931Z,2940.00
2023-02-26T07:52:26.552Z,3004.00
2023-02-26T07:53:26.546Z,3076.00
2023-02-26T07:54:26.541Z,3156.00
2023-02-26T07:55:26.532Z,3248.00
2023-02-26T07:56:27.018Z,3376.00
2023-02-26T07:57:26.524Z,3556.00
2023-02-26T07:58:26.520Z,3732.00
2023-02-26T07:59:26.512Z,3848.00
2023-02-26T08:00:26.589Z,3908.00
2023-02-26T08:01:26.557Z,3944.00
2023-02-26T08:02:26.495Z,5476.00
2023-02-26T08:03:26.503Z,7984.00
2023-02-26T08:04:26.574Z,6856.00
2023-02-26T08:05:28.867Z,6844.00
2023-02-26T08:06:26.872Z,7268.00
2023-02-26T08:07:26.473Z,7052.00
2023-02-26T08:08:26.473Z,6760.00
2023-02-26T08:09:26.468Z,6036.00
2023-02-26T08:10:26.468Z,6868.00
2023-02-26T08:11:26.455Z,6648.00
2023-02-26T08:12:26.489Z,5960.00
2023-02-26T08:13:26.447Z,5756.00
2023-02-26T08:14:26.445Z,6424.00
2023-02-26T08:15:26.448Z,7092.00
2023-02-26T08:16:26.841Z,6924.00
2023-02-26T08:17:26.426Z,6812.00
2023-02-26T08:18:26.440Z,7516.00
2023-02-26T08:19:26.427Z,8440.00
2023-02-26T08:20:26.451Z,8036.00
2023-02-26T08:21:26.420Z,8616.00
2023-02-26T08:22:26.414Z,8400.00
2023-02-26T08:23:26.413Z,7512.00
2023-02-26T08:24:26.413Z,8068.00
2023-02-26T08:25:26.403Z,9240.00
2023-02-26T08:26:26.750Z,9668.00
2023-02-26T08:27:26.387Z,11000.00
2023-02-26T08:28:26.420Z,12908.00
2023-02-26T08:29:26.387Z,17728.00
2023-02-26T08:30:26.388Z,15936.00
2023-02-26T08:31:26.473Z,18592.00
2023-02-26T08:32:26.425Z,12028.00
2023-02-26T08:33:26.366Z,12256.00
2023-02-26T08:34:26.372Z,17248.00
2023-02-26T08:35:26.371Z,18464.00
2023-02-26T08:36:26.761Z,22368.00
2023-02-26T08:37:26.369Z,27168.00
2023-02-26T08:38:26.355Z,25792.00
2023-02-26T08:39:26.353Z,23136.00
2023-02-26T08:40:26.352Z,22336.00
2023-02-26T08:41:26.678Z,25792.00
2023-02-26T08:42:26.345Z,26240.00
2023-02-26T08:43:26.337Z,27744.00
2023-02-26T08:44:26.369Z,24832.00
2023-02-26T08:45:26.336Z,25792.00
2023-02-26T08:46:26.888Z,25248.00
2023-02-26T08:47:29.106Z,30240.00
2023-02-26T08:48:26.337Z,31520.00
2023-02-26T08:49:26.343Z,32800.00
2023-02-26T08:50:26.360Z,34016.00
2023-02-26T08:51:26.802Z,32160.00
2023-02-26T08:52:26.350Z,33152.00
2023-02-26T08:53:26.326Z,35552.00
2023-02-26T08:54:26.326Z,33376.00
2023-02-26T08:55:26.330Z,34656.00
2023-02-26T08:56:26.823Z,35744.00
2023-02-26T08:57:26.321Z,35008.00
2023-02-26T08:58:26.329Z,35808.00
2023-02-26T08:59:26.323Z,34624.00
2023-02-26T09:00:26.344Z,32672.00
2023-02-26T09:01:26.702Z,34464.00
2023-02-26T09:02:26.388Z,33984.00
2023-02-26T09:03:26.316Z,32992.00
2023-02-26T09:04:26.331Z,34976.00
2023-02-26T09:05:26.324Z,32352.00
2023-02-26T09:06:26.621Z,32928.00
2023-02-26T09:07:26.322Z,6524.00
2023-02-26T09:08:26.325Z,33216.00
2023-02-26T09:09:26.317Z,33536.00
2023-02-26T09:10:26.325Z,26400.00
2023-02-26T09:11:26.640Z,14092.00
2023-02-26T09:12:26.322Z,10980.00
2023-02-26T09:13:26.318Z,10432.00
2023-02-26T09:14:26.327Z,13316.00
2023-02-26T09:15:26.318Z,10052.00
2023-02-26T09:16:26.947Z,9268.00
2023-02-26T09:17:26.323Z,8472.00
2023-02-26T09:18:26.332Z,8820.00
2023-02-26T09:19:26.324Z,8092.00
2023-02-26T09:20:26.328Z,8132.00
2023-02-26T09:21:26.322Z,6856.00
2023-02-26T09:22:26.337Z,7068.00
2023-02-26T09:23:26.324Z,6552.00
2023-02-26T09:24:26.344Z,6152.00
2023-02-26T09:25:26.321Z,6472.00
2023-02-26T09:26:26.770Z,6100.00
2023-02-26T09:27:26.328Z,5616.00
2023-02-26T09:28:26.459Z,5536.00
2023-02-26T09:29:26.328Z,5364.00
2023-02-26T09:30:26.344Z,6256.00
2023-02-26T09:31:26.443Z,5048.00
2023-02-26T09:32:26.538Z,4920.00
2023-02-26T09:33:26.331Z,6000.00
2023-02-26T09:34:26.335Z,5556.00
2023-02-26T09:35:26.333Z,5036.00
2023-02-26T09:36:26.787Z,5880.00
2023-02-26T09:37:26.344Z,4936.00
2023-02-26T09:38:26.336Z,4964.00
2023-02-26T09:39:26.341Z,5868.00
2023-02-26T09:40:26.350Z,7060.00
2023-02-26T09:41:26.335Z,8732.00
2023-02-26T09:42:26.340Z,9460.00
2023-02-26T09:43:26.338Z,6284.00
2023-02-26T09:44:26.347Z,5056.00
2023-02-26T09:45:26.403Z,7868.00
2023-02-26T09:46:26.772Z,6004.00
2023-02-26T09:47:26.338Z,3768.00
2023-02-26T09:48:26.378Z,4048.00
2023-02-26T09:49:26.342Z,7252.00
2023-02-26T09:50:26.340Z,9124.00
2023-02-26T09:51:26.341Z,8548.00
2023-02-26T09:52:26.358Z,6652.00
2023-02-26T09:53:26.347Z,6824.00
2023-02-26T09:54:26.345Z,6428.00
2023-02-26T09:55:26.346Z,4168.00
2023-02-26T09:56:26.714Z,4496.00
2023-02-26T09:57:26.352Z,5164.00
2023-02-26T09:58:26.348Z,5900.00
2023-02-26T09:59:26.344Z,4740.00
2023-02-26T10:00:26.354Z,5112.00
2023-02-26T10:01:26.408Z,3540.00
2023-02-26T10:02:26.356Z,5360.00
2023-02-26T10:03:26.352Z,7416.00
2023-02-26T10:04:26.426Z,8088.00
2023-02-26T10:05:26.350Z,7816.00
2023-02-26T10:06:26.697Z,6208.00
2023-02-26T10:07:26.350Z,5292.00
2023-02-26T10:08:26.350Z,5432.00
2023-02-26T10:09:26.347Z,5612.00
2023-02-26T10:10:26.346Z,5192.00
2023-02-26T10:11:26.340Z,5076.00
2023-02-26T10:12:26.357Z,5160.00
2023-02-26T10:13:26.344Z,5200.00
2023-02-26T10:14:26.339Z,5344.00
2023-02-26T10:15:26.349Z,5596.00
2023-02-26T10:16:26.785Z,5332.00
2023-02-26T10:17:26.341Z,5876.00
2023-02-26T10:18:26.344Z,6052.00
2023-02-26T10:19:26.348Z,6068.00
2023-02-26T10:20:26.385Z,6200.00
2023-02-26T10:21:26.343Z,4932.00
2023-02-26T10:22:26.342Z,4976.00
2023-02-26T10:23:26.340Z,4604.00
2023-02-26T10:24:26.341Z,5932.00
2023-02-26T10:25:26.339Z,7004.00
2023-02-26T10:26:26.704Z,6024.00
2023-02-26T10:27:26.343Z,3540.00
2023-02-26T10:28:26.334Z,5372.00
2023-02-26T10:29:26.338Z,6864.00
2023-02-26T10:30:26.347Z,6080.00
2023-02-26T10:31:26.782Z,5132.00
2023-02-26T10:32:26.638Z,4772.00
2023-02-26T10:33:26.353Z,6988.00
2023-02-26T10:34:26.345Z,6144.00
2023-02-26T10:35:26.337Z,3788.00
2023-02-26T10:36:26.350Z,3716.00
2023-02-26T10:37:26.334Z,5020.00
2023-02-26T10:38:26.343Z,4984.00
2023-02-26T10:39:26.333Z,5232.00
2023-02-26T10:40:26.334Z,6336.00
2023-02-26T10:41:26.665Z,6532.00
2023-02-26T10:42:26.327Z,5480.00
2023-02-26T10:43:26.349Z,7820.00
2023-02-26T10:44:26.326Z,11476.00
2023-02-26T10:45:26.344Z,12028.00
2023-02-26T10:46:26.321Z,10288.00
2023-02-26T10:47:26.358Z,8108.00
2023-02-26T10:48:26.317Z,7648.00
2023-02-26T10:49:26.329Z,6916.00
2023-02-26T10:50:26.308Z,5076.00
2023-02-26T10:51:26.735Z,6380.00
2023-02-26T10:52:26.338Z,9912.00
2023-02-26T10:53:26.306Z,6460.00
2023-02-26T10:54:26.307Z,3944.00
2023-02-26T10:55:26.306Z,2640.00
2023-02-26T10:56:26.310Z,4544.00
2023-02-26T10:57:26.308Z,10016.00
2023-02-26T10:58:26.308Z,11968.00
2023-02-26T10:59:26.309Z,8964.00
2023-02-26T11:00:26.303Z,6572.00
2023-02-26T11:01:26.714Z,6448.00
2023-02-26T11:02:26.509Z,6196.00
2023-02-26T11:03:26.311Z,5992.00
2023-02-26T11:04:26.304Z,7836.00
2023-02-26T11:05:26.303Z,9608.00
2023-02-26T11:06:26.306Z,7784.00
2023-02-26T11:07:26.306Z,6160.00
2023-02-26T11:08:26.328Z,5064.00
2023-02-26T11:09:26.354Z,3980.00
2023-02-26T11:10:26.298Z,8744.00
2023-02-26T11:11:26.730Z,10064.00
2023-02-26T11:12:26.308Z,11396.00
2023-02-26T11:13:26.305Z,7816.00
2023-02-26T11:14:28.752Z,5408.00
2023-02-26T11:15:26.302Z,3584.00
2023-02-26T11:16:26.292Z,4904.00
2023-02-26T11:17:26.302Z,4516.00
2023-02-26T11:18:26.285Z,4204.00
2023-02-26T11:19:26.290Z,4108.00
2023-02-26T11:20:26.290Z,5088.00
2023-02-26T11:21:26.613Z,6296.00
2023-02-26T11:22:26.306Z,6444.00
2023-02-26T11:23:26.286Z,5436.00
2023-02-26T11:24:26.316Z,3804.00
2023-02-26T11:25:26.292Z,3104.00
2023-02-26T11:26:26.290Z,3200.00
2023-02-26T11:27:26.297Z,2952.00
2023-02-26T11:28:26.301Z,3888.00
2023-02-26T11:29:26.280Z,5844.00
2023-02-26T11:30:26.293Z,8356.00
2023-02-26T11:31:26.795Z,7368.00
2023-02-26T11:32:26.364Z,4608.00
2023-02-26T11:33:26.282Z,4468.00
2023-02-26T11:34:26.276Z,4416.00
2023-02-26T11:35:26.282Z,3668.00
2023-02-26T11:36:26.683Z,5640.00
2023-02-26T11:37:26.276Z,7132.00
2023-02-26T11:38:26.373Z,8896.00
2023-02-26T11:39:26.279Z,9612.00
2023-02-26T11:40:26.283Z,8936.00
2023-02-26T11:41:26.722Z,7472.00
2023-02-26T11:42:26.289Z,5544.00
2023-02-26T11:43:26.293Z,4684.00
2023-02-26T11:44:26.268Z,6440.00
2023-02-26T11:45:26.273Z,8544.00
2023-02-26T11:46:26.354Z,6228.00
2023-02-26T11:47:26.259Z,4088.00
2023-02-26T11:48:26.259Z,4188.00
2023-02-26T11:49:26.269Z,3096.00
2023-02-26T11:50:26.269Z,4404.00
2023-02-26T11:51:26.576Z,5880.00
2023-02-26T11:52:26.258Z,4748.00
2023-02-26T11:53:26.249Z,4564.00
2023-02-26T11:54:26.245Z,4648.00
2023-02-26T11:55:26.260Z,7052.00
2023-02-26T11:56:26.268Z,10016.00
2023-02-26T11:57:26.266Z,10008.00
2023-02-26T11:58:26.287Z,8460.00
2023-02-26T11:59:26.251Z,6720.00
2023-02-26T12:00:26.235Z,3140.00
2023-02-26T12:01:26.603Z,2604.00
2023-02-26T12:02:26.251Z,2940.00
2023-02-26T12:03:26.275Z,3276.00
2023-02-26T12:04:27.730Z,3576.00
2023-02-26T12:05:26.237Z,3476.00
2023-02-26T12:06:26.239Z,2952.00
2023-02-26T12:07:26.262Z,3184.00
2023-02-26T12:08:26.236Z,4576.00
2023-02-26T12:09:26.234Z,5080.00
2023-02-26T12:10:26.251Z,6056.00
2023-02-26T12:11:26.580Z,8256.00
2023-02-26T12:12:26.297Z,8688.00
2023-02-26T12:13:26.238Z,6368.00
2023-02-26T12:14:26.230Z,5448.00
2023-02-26T12:15:26.224Z,6324.00
2023-02-26T12:16:26.219Z,7488.00
2023-02-26T12:17:26.231Z,5820.00
2023-02-26T12:18:26.218Z,4232.00
2023-02-26T12:19:26.223Z,3880.00
2023-02-26T12:20:26.215Z,3676.00
2023-02-26T12:21:26.521Z,3560.00
2023-02-26T12:22:26.227Z,3456.00
2023-02-26T12:23:26.208Z,3584.00
2023-02-26T12:24:26.217Z,2964.00
2023-02-26T12:25:26.202Z,2372.00
2023-02-26T12:26:26.225Z,2100.00
2023-02-26T12:27:26.207Z,2152.00
2023-02-26T12:28:26.241Z,4064.00
2023-02-26T12:29:26.198Z,4608.00
2023-02-26T12:30:26.201Z,5520.00
2023-02-26T12:31:26.660Z,6664.00
2023-02-26T12:32:26.340Z,7940.00
2023-02-26T12:33:26.191Z,7044.00
2023-02-26T12:34:26.200Z,5296.00
2023-02-26T12:35:26.202Z,3524.00
2023-02-26T12:36:28.211Z,4872.00
2023-02-26T12:37:26.194Z,6364.00